sensor_id;sensor_type;location;lat;lon;timestamp;P1;durP1;ratioP1;P2;durP2;ratioP2
11829;SDS011;5972;42.134;24.718;2023-01-04T00:01:33;47.00;;;26.60;;
11829;SDS011;5972;42.134;24.718;2023-01-04T00:04:01;43.97;;;26.40;;
11829;SDS011;5972;42.134;24.718;2023-01-04T00:06:28;41.80;;;25.83;;
11829;SDS011;5972;42.134;24.718;2023-01-04T00:08:55;42.47;;;25.53;;
11829;SDS011;5972;42.134;24.718;2023-01-04T00:11:22;39.20;;;24.23;;
11829;SDS011;5972;42.134;24.718;2023-01-04T00:13:50;38.83;;;23.63;;
11829;SDS011;5972;42.134;24.718;2023-01-04T00:16:18;36.33;;;23.90;;
11829;SDS011;5972;42.134;24.718;2023-01-04T00:18:46;37.17;;;23.43;;
11829;SDS011;5972;42.134;24.718;2023-01-04T00:21:16;44.83;;;23.70;;
11829;SDS011;5972;42.134;24.718;2023-01-04T00:23:46;46.60;;;23.93;;
11829;SDS011;5972;42.134;24.718;2023-01-04T00:26:14;41.50;;;23.33;;
11829;SDS011;5972;42.134;24.718;2023-01-04T00:28:43;44.13;;;23.70;;
11829;SDS011;5972;42.134;24.718;2023-01-04T00:31:10;36.97;;;23.23;;
11829;SDS011;5972;42.134;24.718;2023-01-04T00:33:38;40.80;;;24.20;;
11829;SDS011;5972;42.134;24.718;2023-01-04T00:36:06;34.33;;;22.73;;
11829;SDS011;5972;42.134;24.718;2023-01-04T00:38:35;35.50;;;23.60;;
11829;SDS011;5972;42.134;24.718;2023-01-04T00:41:03;39.20;;;23.73;;
11829;SDS011;5972;42.134;24.718;2023-01-04T00:43:31;36.20;;;22.73;;
11829;SDS011;5972;42.134;24.718;2023-01-04T00:45:58;35.00;;;22.97;;
11829;SDS011;5972;42.134;24.718;2023-01-04T00:48:25;35.27;;;22.77;;
11829;SDS011;5972;42.134;24.718;2023-01-04T00:50:53;38.77;;;23.87;;
11829;SDS011;5972;42.134;24.718;2023-01-04T00:53:19;44.60;;;24.50;;
11829;SDS011;5972;42.134;24.718;2023-01-04T00:55:48;37.13;;;24.33;;
11829;SDS011;5972;42.134;24.718;2023-01-04T00:58:15;41.40;;;24.77;;
11829;SDS011;5972;42.134;24.718;2023-01-04T01:00:41;37.57;;;23.80;;
11829;SDS011;5972;42.134;24.718;2023-01-04T01:03:08;36.07;;;23.37;;
11829;SDS011;5972;42.134;24.718;2023-01-04T01:05:35;40.60;;;24.93;;
11829;SDS011;5972;42.134;24.718;2023-01-04T01:08:02;40.67;;;24.30;;
11829;SDS011;5972;42.134;24.718;2023-01-04T01:10:43;35.03;;;23.90;;
11829;SDS011;5972;42.134;24.718;2023-01-04T01:13:11;46.43;;;25.33;;
11829;SDS011;5972;42.134;24.718;2023-01-04T01:15:38;42.70;;;24.83;;
11829;SDS011;5972;42.134;24.718;2023-01-04T01:18:05;39.13;;;25.97;;
11829;SDS011;5972;42.134;24.718;2023-01-04T01:20:32;41.83;;;27.27;;
11829;SDS011;5972;42.134;24.718;2023-01-04T01:22:59;40.87;;;25.87;;
11829;SDS011;5972;42.134;24.718;2023-01-04T01:25:26;43.17;;;27.17;;
11829;SDS011;5972;42.134;24.718;2023-01-04T01:27:53;46.17;;;26.53;;
11829;SDS011;5972;42.134;24.718;2023-01-04T01:30:21;47.53;;;25.80;;
11829;SDS011;5972;42.134;24.718;2023-01-04T01:32:48;44.37;;;26.93;;
11829;SDS011;5972;42.134;24.718;2023-01-04T01:35:15;42.03;;;26.27;;
11829;SDS011;5972;42.134;24.718;2023-01-04T01:37:42;47.80;;;27.30;;
11829;SDS011;5972;42.134;24.718;2023-01-04T01:40:09;50.20;;;29.00;;
11829;SDS011;5972;42.134;24.718;2023-01-04T01:42:36;55.93;;;33.97;;
11829;SDS011;5972;42.134;24.718;2023-01-04T01:45:04;51.53;;;31.27;;
11829;SDS011;5972;42.134;24.718;2023-01-04T01:47:38;60.20;;;33.00;;
11829;SDS011;5972;42.134;24.718;2023-01-04T01:50:14;60.07;;;32.23;;
11829;SDS011;5972;42.134;24.718;2023-01-04T01:52:45;48.43;;;29.93;;
11829;SDS011;5972;42.134;24.718;2023-01-04T01:55:13;53.90;;;33.20;;
11829;SDS011;5972;42.134;24.718;2023-01-04T01:57:41;53.43;;;31.93;;
11829;SDS011;5972;42.134;24.718;2023-01-04T02:00:10;49.73;;;30.83;;
11829;SDS011;5972;42.134;24.718;2023-01-04T02:02:42;53.50;;;32.17;;
11829;SDS011;5972;42.134;24.718;2023-01-04T02:05:15;51.30;;;31.13;;
11829;SDS011;5972;42.134;24.718;2023-01-04T02:07:43;55.03;;;32.43;;
11829;SDS011;5972;42.134;24.718;2023-01-04T02:10:10;47.03;;;29.27;;
11829;SDS011;5972;42.134;24.718;2023-01-04T02:12:37;54.97;;;31.33;;
11829;SDS011;5972;42.134;24.718;2023-01-04T02:15:05;49.93;;;30.00;;
11829;SDS011;5972;42.134;24.718;2023-01-04T02:17:33;50.73;;;30.90;;
11829;SDS011;5972;42.134;24.718;2023-01-04T02:20:16;51.73;;;31.60;;
11829;SDS011;5972;42.134;24.718;2023-01-04T02:26:29;47.90;;;29.80;;
11829;SDS011;5972;42.134;24.718;2023-01-04T02:29:30;50.20;;;29.03;;
11829;SDS011;5972;42.134;24.718;2023-01-04T02:32:29;47.97;;;28.43;;
11829;SDS011;5972;42.134;24.718;2023-01-04T02:35:13;50.80;;;30.30;;
11829;SDS011;5972;42.134;24.718;2023-01-04T02:37:45;46.47;;;28.90;;
11829;SDS011;5972;42.134;24.718;2023-01-04T02:40:18;72.03;;;32.77;;
11829;SDS011;5972;42.134;24.718;2023-01-04T02:42:50;51.17;;;32.03;;
11829;SDS011;5972;42.134;24.718;2023-01-04T02:45:42;55.90;;;31.33;;
11829;SDS011;5972;42.134;24.718;2023-01-04T02:48:15;51.63;;;30.30;;
11829;SDS011;5972;42.134;24.718;2023-01-04T02:50:59;52.27;;;30.80;;
11829;SDS011;5972;42.134;24.718;2023-01-04T02:53:27;58.47;;;31.30;;
11829;SDS011;5972;42.134;24.718;2023-01-04T02:56:02;56.20;;;30.27;;
11829;SDS011;5972;42.134;24.718;2023-01-04T02:58:43;52.40;;;29.60;;
11829;SDS011;5972;42.134;24.718;2023-01-04T03:01:27;47.73;;;29.50;;
11829;SDS011;5972;42.134;24.718;2023-01-04T03:04:25;47.77;;;28.57;;
11829;SDS011;5972;42.134;24.718;2023-01-04T03:07:24;50.07;;;26.43;;
11829;SDS011;5972;42.134;24.718;2023-01-04T03:09:57;45.43;;;27.00;;
11829;SDS011;5972;42.134;24.718;2023-01-04T03:12:30;42.93;;;27.70;;
11829;SDS011;5972;42.134;24.718;2023-01-04T03:15:05;42.40;;;25.57;;
11829;SDS011;5972;42.134;24.718;2023-01-04T03:17:39;44.80;;;25.77;;
11829;SDS011;5972;42.134;24.718;2023-01-04T03:20:12;43.60;;;26.27;;
11829;SDS011;5972;42.134;24.718;2023-01-04T03:22:42;40.67;;;25.47;;
11829;SDS011;5972;42.134;24.718;2023-01-04T03:25:30;49.03;;;26.37;;
11829;SDS011;5972;42.134;24.718;2023-01-04T03:28:18;41.67;;;25.20;;
11829;SDS011;5972;42.134;24.718;2023-01-04T03:31:06;41.10;;;23.90;;
11829;SDS011;5972;42.134;24.718;2023-01-04T03:33:55;35.77;;;23.37;;
11829;SDS011;5972;42.134;24.718;2023-01-04T03:36:43;43.30;;;24.13;;
11829;SDS011;5972;42.134;24.718;2023-01-04T03:39:18;34.60;;;23.20;;
11829;SDS011;5972;42.134;24.718;2023-01-04T03:42:10;40.07;;;24.80;;
11829;SDS011;5972;42.134;24.718;2023-01-04T03:45:02;39.77;;;23.20;;
11829;SDS011;5972;42.134;24.718;2023-01-04T03:47:58;41.43;;;23.77;;
11829;SDS011;5972;42.134;24.718;2023-01-04T03:50:46;42.33;;;23.17;;
11829;SDS011;5972;42.134;24.718;2023-01-04T03:53:19;42.43;;;24.40;;
11829;SDS011;5972;42.134;24.718;2023-01-04T03:55:47;45.03;;;25.20;;
11829;SDS011;5972;42.134;24.718;2023-01-04T03:58:15;37.33;;;24.03;;
11829;SDS011;5972;42.134;24.718;2023-01-04T04:00:44;45.83;;;24.90;;
11829;SDS011;5972;42.134;24.718;2023-01-04T04:03:11;36.87;;;24.50;;
11829;SDS011;5972;42.134;24.718;2023-01-04T04:05:39;41.07;;;25.30;;
11829;SDS011;5972;42.134;24.718;2023-01-04T04:08:26;41.53;;;25.37;;
11829;SDS011;5972;42.134;24.718;2023-01-04T04:10:54;48.23;;;27.37;;
11829;SDS011;5972;42.134;24.718;2023-01-04T04:13:22;48.97;;;26.30;;
11829;SDS011;5972;42.134;24.718;2023-01-04T04:15:51;35.60;;;23.70;;
11829;SDS011;5972;42.134;24.718;2023-01-04T04:18:18;42.53;;;24.40;;
11829;SDS011;5972;42.134;24.718;2023-01-04T04:20:45;40.23;;;24.50;;
11829;SDS011;5972;42.134;24.718;2023-01-04T04:23:12;47.47;;;27.20;;
11829;SDS011;5972;42.134;24.718;2023-01-04T04:25:40;44.13;;;25.70;;
11829;SDS011;5972;42.134;24.718;2023-01-04T04:28:07;43.63;;;25.27;;
11829;SDS011;5972;42.134;24.718;2023-01-04T04:30:34;48.83;;;25.47;;
11829;SDS011;5972;42.134;24.718;2023-01-04T04:33:01;42.77;;;25.80;;
11829;SDS011;5972;42.134;24.718;2023-01-04T04:35:28;42.77;;;26.20;;
11829;SDS011;5972;42.134;24.718;2023-01-04T04:37:55;46.17;;;27.17;;
11829;SDS011;5972;42.134;24.718;2023-01-04T04:40:22;50.23;;;29.67;;
11829;SDS011;5972;42.134;24.718;2023-01-04T04:43:06;50.50;;;27.77;;
11829;SDS011;5972;42.134;24.718;2023-01-04T04:45:33;46.70;;;28.57;;
11829;SDS011;5972;42.134;24.718;2023-01-04T04:48:00;45.37;;;28.77;;
11829;SDS011;5972;42.134;24.718;2023-01-04T04:50:27;47.00;;;27.90;;
11829;SDS011;5972;42.134;24.718;2023-01-04T04:52:53;45.33;;;26.80;;
11829;SDS011;5972;42.134;24.718;2023-01-04T04:55:20;44.13;;;28.67;;
11829;SDS011;5972;42.134;24.718;2023-01-04T04:57:47;44.50;;;24.97;;
11829;SDS011;5972;42.134;24.718;2023-01-04T05:00:15;44.87;;;26.70;;
11829;SDS011;5972;42.134;24.718;2023-01-04T05:02:42;47.57;;;26.47;;
11829;SDS011;5972;42.134;24.718;2023-01-04T05:05:09;41.47;;;25.73;;
11829;SDS011;5972;42.134;24.718;2023-01-04T05:07:36;41.97;;;25.03;;
11829;SDS011;5972;42.134;24.718;2023-01-04T05:10:03;52.87;;;27.90;;
11829;SDS011;5972;42.134;24.718;2023-01-04T05:12:31;46.63;;;25.17;;
11829;SDS011;5972;42.134;24.718;2023-01-04T05:15:17;45.27;;;24.10;;
11829;SDS011;5972;42.134;24.718;2023-01-04T05:17:43;39.87;;;21.80;;
11829;SDS011;5972;42.134;24.718;2023-01-04T05:20:10;32.80;;;21.83;;
11829;SDS011;5972;42.134;24.718;2023-01-04T05:22:37;37.10;;;22.20;;
11829;SDS011;5972;42.134;24.718;2023-01-04T05:25:05;34.87;;;21.83;;
11829;SDS011;5972;42.134;24.718;2023-01-04T05:27:34;37.53;;;22.70;;
11829;SDS011;5972;42.134;24.718;2023-01-04T05:30:01;36.60;;;20.60;;
11829;SDS011;5972;42.134;24.718;2023-01-04T05:32:47;37.53;;;21.70;;
11829;SDS011;5972;42.134;24.718;2023-01-04T05:35:14;40.70;;;23.93;;
11829;SDS011;5972;42.134;24.718;2023-01-04T05:37:42;36.13;;;22.37;;
11829;SDS011;5972;42.134;24.718;2023-01-04T05:40:09;42.63;;;23.23;;
11829;SDS011;5972;42.134;24.718;2023-01-04T05:42:36;38.83;;;26.07;;
11829;SDS011;5972;42.134;24.718;2023-01-04T05:45:03;41.03;;;27.03;;
11829;SDS011;5972;42.134;24.718;2023-01-04T05:47:31;47.83;;;28.10;;
11829;SDS011;5972;42.134;24.718;2023-01-04T05:49:59;42.13;;;26.83;;
11829;SDS011;5972;42.134;24.718;2023-01-04T05:52:26;44.63;;;26.97;;
11829;SDS011;5972;42.134;24.718;2023-01-04T05:54:54;41.23;;;25.20;;
11829;SDS011;5972;42.134;24.718;2023-01-04T05:57:20;42.70;;;25.50;;
11829;SDS011;5972;42.134;24.718;2023-01-04T05:59:47;42.97;;;26.17;;
11829;SDS011;5972;42.134;24.718;2023-01-04T06:02:15;43.47;;;26.77;;
11829;SDS011;5972;42.134;24.718;2023-01-04T06:04:43;50.30;;;27.93;;
11829;SDS011;5972;42.134;24.718;2023-01-04T06:07:12;54.07;;;32.70;;
11829;SDS011;5972;42.134;24.718;2023-01-04T06:09:39;43.63;;;26.97;;
11829;SDS011;5972;42.134;24.718;2023-01-04T06:12:06;43.23;;;27.53;;
11829;SDS011;5972;42.134;24.718;2023-01-04T06:14:33;47.13;;;27.17;;
11829;SDS011;5972;42.134;24.718;2023-01-04T06:17:00;45.73;;;26.23;;
11829;SDS011;5972;42.134;24.718;2023-01-04T06:19:27;50.57;;;26.50;;
11829;SDS011;5972;42.134;24.718;2023-01-04T06:21:54;45.37;;;26.20;;
11829;SDS011;5972;42.134;24.718;2023-01-04T06:24:22;43.90;;;26.13;;
11829;SDS011;5972;42.134;24.718;2023-01-04T06:26:49;45.73;;;25.77;;
11829;SDS011;5972;42.134;24.718;2023-01-04T06:29:16;39.63;;;24.07;;
11829;SDS011;5972;42.134;24.718;2023-01-04T06:31:43;40.27;;;23.47;;
11829;SDS011;5972;42.134;24.718;2023-01-04T06:34:10;44.40;;;22.53;;
11829;SDS011;5972;42.134;24.718;2023-01-04T06:36:38;33.50;;;22.50;;
11829;SDS011;5972;42.134;24.718;2023-01-04T06:39:06;32.53;;;20.40;;
11829;SDS011;5972;42.134;24.718;2023-01-04T06:41:35;23.67;;;17.30;;
11829;SDS011;5972;42.134;24.718;2023-01-04T06:44:02;26.47;;;18.13;;
11829;SDS011;5972;42.134;24.718;2023-01-04T06:46:29;28.47;;;17.80;;
11829;SDS011;5972;42.134;24.718;2023-01-04T06:48:56;27.20;;;18.23;;
11829;SDS011;5972;42.134;24.718;2023-01-04T06:51:22;28.07;;;18.93;;
11829;SDS011;5972;42.134;24.718;2023-01-04T06:53:49;34.33;;;20.37;;
11829;SDS011;5972;42.134;24.718;2023-01-04T06:56:16;35.23;;;19.77;;
11829;SDS011;5972;42.134;24.718;2023-01-04T06:58:45;38.83;;;20.73;;
11829;SDS011;5972;42.134;24.718;2023-01-04T07:01:12;36.40;;;21.23;;
11829;SDS011;5972;42.134;24.718;2023-01-04T07:03:38;33.00;;;20.80;;
11829;SDS011;5972;42.134;24.718;2023-01-04T07:06:06;35.80;;;21.10;;
11829;SDS011;5972;42.134;24.718;2023-01-04T07:08:34;32.90;;;21.03;;
11829;SDS011;5972;42.134;24.718;2023-01-04T07:11:01;37.63;;;23.40;;
11829;SDS011;5972;42.134;24.718;2023-01-04T07:13:28;31.90;;;20.70;;
11829;SDS011;5972;42.134;24.718;2023-01-04T07:15:56;37.90;;;21.87;;
11829;SDS011;5972;42.134;24.718;2023-01-04T07:18:23;31.40;;;20.97;;
11829;SDS011;5972;42.134;24.718;2023-01-04T07:20:50;36.23;;;21.00;;
11829;SDS011;5972;42.134;24.718;2023-01-04T07:23:17;34.47;;;21.60;;
11829;SDS011;5972;42.134;24.718;2023-01-04T07:25:45;35.33;;;21.23;;
11829;SDS011;5972;42.134;24.718;2023-01-04T07:28:12;30.60;;;20.50;;
11829;SDS011;5972;42.134;24.718;2023-01-04T07:31:03;37.87;;;19.73;;
11829;SDS011;5972;42.134;24.718;2023-01-04T07:33:31;28.90;;;18.87;;
11829;SDS011;5972;42.134;24.718;2023-01-04T07:36:02;33.37;;;21.63;;
11829;SDS011;5972;42.134;24.718;2023-01-04T07:38:30;28.20;;;19.57;;
11829;SDS011;5972;42.134;24.718;2023-01-04T07:40:57;30.17;;;19.60;;
11829;SDS011;5972;42.134;24.718;2023-01-04T07:43:24;30.13;;;19.63;;
11829;SDS011;5972;42.134;24.718;2023-01-04T07:45:51;27.63;;;19.40;;
11829;SDS011;5972;42.134;24.718;2023-01-04T07:48:19;27.40;;;18.63;;
11829;SDS011;5972;42.134;24.718;2023-01-04T07:50:46;28.85;;;20.35;;
11829;SDS011;5972;42.134;24.718;2023-01-04T07:53:14;27.95;;;20.38;;
11829;SDS011;5972;42.134;24.718;2023-01-04T07:55:42;29.25;;;20.73;;
11829;SDS011;5972;42.134;24.718;2023-01-04T07:58:09;32.13;;;20.13;;
11829;SDS011;5972;42.134;24.718;2023-01-04T08:00:36;28.13;;;20.75;;
11829;SDS011;5972;42.134;24.718;2023-01-04T08:03:03;26.75;;;20.83;;
11829;SDS011;5972;42.134;24.718;2023-01-04T08:05:34;33.33;;;22.35;;
11829;SDS011;5972;42.134;24.718;2023-01-04T08:08:08;35.08;;;22.85;;
11829;SDS011;5972;42.134;24.718;2023-01-04T08:10:35;28.95;;;20.58;;
11829;SDS011;5972;42.134;24.718;2023-01-04T08:13:02;25.63;;;18.98;;
11829;SDS011;5972;42.134;24.718;2023-01-04T08:15:28;30.90;;;20.35;;
11829;SDS011;5972;42.134;24.718;2023-01-04T08:17:55;25.10;;;19.33;;
11829;SDS011;5972;42.134;24.718;2023-01-04T08:20:22;30.50;;;21.00;;
11829;SDS011;5972;42.134;24.718;2023-01-04T08:22:50;27.40;;;19.92;;
11829;SDS011;5972;42.134;24.718;2023-01-04T08:25:18;30.50;;;21.00;;
11829;SDS011;5972;42.134;24.718;2023-01-04T08:27:45;25.98;;;19.20;;
11829;SDS011;5972;42.134;24.718;2023-01-04T08:30:11;23.77;;;18.83;;
11829;SDS011;5972;42.134;24.718;2023-01-04T08:32:40;24.17;;;18.58;;
11829;SDS011;5972;42.134;24.718;2023-01-04T08:35:15;26.05;;;18.85;;
11829;SDS011;5972;42.134;24.718;2023-01-04T08:37:42;23.65;;;18.10;;
11829;SDS011;5972;42.134;24.718;2023-01-04T08:40:10;25.73;;;19.15;;
11829;SDS011;5972;42.134;24.718;2023-01-04T08:42:37;27.98;;;16.75;;
11829;SDS011;5972;42.134;24.718;2023-01-04T08:45:05;20.55;;;16.98;;
11829;SDS011;5972;42.134;24.718;2023-01-04T08:47:32;22.13;;;17.05;;
11829;SDS011;5972;42.134;24.718;2023-01-04T08:49:59;20.83;;;15.32;;
11829;SDS011;5972;42.134;24.718;2023-01-04T08:52:27;20.55;;;16.40;;
11829;SDS011;5972;42.134;24.718;2023-01-04T08:54:54;24.20;;;15.38;;
11829;SDS011;5972;42.134;24.718;2023-01-04T08:57:22;22.30;;;15.07;;
11829;SDS011;5972;42.134;24.718;2023-01-04T08:59:49;20.92;;;14.50;;
11829;SDS011;5972;42.134;24.718;2023-01-04T09:02:20;20.08;;;13.55;;
11829;SDS011;5972;42.134;24.718;2023-01-04T09:04:48;16.52;;;13.75;;
11829;SDS011;5972;42.134;24.718;2023-01-04T09:07:15;19.23;;;13.43;;
11829;SDS011;5972;42.134;24.718;2023-01-04T09:09:43;17.85;;;13.43;;
11829;SDS011;5972;42.134;24.718;2023-01-04T09:12:10;18.27;;;13.30;;
11829;SDS011;5972;42.134;24.718;2023-01-04T09:14:38;18.27;;;12.13;;
11829;SDS011;5972;42.134;24.718;2023-01-04T09:17:05;19.60;;;12.73;;
11829;SDS011;5972;42.134;24.718;2023-01-04T09:19:32;18.38;;;12.80;;
11829;SDS011;5972;42.134;24.718;2023-01-04T09:21:59;19.27;;;12.05;;
11829;SDS011;5972;42.134;24.718;2023-01-04T09:24:26;20.27;;;11.60;;
11829;SDS011;5972;42.134;24.718;2023-01-04T09:26:53;12.43;;;10.45;;
11829;SDS011;5972;42.134;24.718;2023-01-04T09:29:20;14.85;;;9.60;;
11829;SDS011;5972;42.134;24.718;2023-01-04T09:31:50;14.95;;;10.60;;
11829;SDS011;5972;42.134;24.718;2023-01-04T09:34:17;17.13;;;10.00;;
11829;SDS011;5972;42.134;24.718;2023-01-04T09:36:46;15.43;;;8.65;;
11829;SDS011;5972;42.134;24.718;2023-01-04T09:39:14;12.32;;;7.97;;
11829;SDS011;5972;42.134;24.718;2023-01-04T09:41:43;10.32;;;7.15;;
11829;SDS011;5972;42.134;24.718;2023-01-04T09:44:17;11.73;;;7.53;;
11829;SDS011;5972;42.134;24.718;2023-01-04T09:46:56;8.80;;;7.50;;
11829;SDS011;5972;42.134;24.718;2023-01-04T09:49:27;13.55;;;7.35;;
11829;SDS011;5972;42.134;24.718;2023-01-04T09:52:01;12.13;;;7.82;;
11829;SDS011;5972;42.134;24.718;2023-01-04T09:54:31;13.90;;;7.70;;
11829;SDS011;5972;42.134;24.718;2023-01-04T09:57:08;15.43;;;7.60;;
11829;SDS011;5972;42.134;24.718;2023-01-04T09:59:45;11.38;;;8.52;;
11829;SDS011;5972;42.134;24.718;2023-01-04T10:02:18;11.13;;;7.47;;
11829;SDS011;5972;42.134;24.718;2023-01-04T10:04:50;9.18;;;7.90;;
11829;SDS011;5972;42.134;24.718;2023-01-04T10:07:20;12.68;;;8.00;;
11829;SDS011;5972;42.134;24.718;2023-01-04T10:09:53;10.25;;;8.27;;
11829;SDS011;5972;42.134;24.718;2023-01-04T10:12:27;10.60;;;7.80;;
11829;SDS011;5972;42.134;24.718;2023-01-04T10:15:13;9.90;;;7.82;;
11829;SDS011;5972;42.134;24.718;2023-01-04T10:17:53;11.32;;;7.97;;
11829;SDS011;5972;42.134;24.718;2023-01-04T10:20:43;11.90;;;8.25;;
11829;SDS011;5972;42.134;24.718;2023-01-04T10:23:39;12.18;;;8.52;;
11829;SDS011;5972;42.134;24.718;2023-01-04T10:26:16;9.35;;;7.88;;
11829;SDS011;5972;42.134;24.718;2023-01-04T10:28:53;12.07;;;8.20;;
11829;SDS011;5972;42.134;24.718;2023-01-04T10:31:34;11.07;;;7.35;;
11829;SDS011;5972;42.134;24.718;2023-01-04T10:34:13;9.52;;;7.60;;
11829;SDS011;5972;42.134;24.718;2023-01-04T10:36:46;9.43;;;7.80;;
11829;SDS011;5972;42.134;24.718;2023-01-04T10:39:15;8.43;;;7.32;;
11829;SDS011;5972;42.134;24.718;2023-01-04T10:41:46;13.88;;;8.70;;
11829;SDS011;5972;42.134;24.718;2023-01-04T10:44:19;13.75;;;8.38;;
11829;SDS011;5972;42.134;24.718;2023-01-04T10:46:55;11.98;;;8.68;;
11829;SDS011;5972;42.134;24.718;2023-01-04T10:49:32;11.10;;;8.23;;
11829;SDS011;5972;42.134;24.718;2023-01-04T10:52:08;13.55;;;7.78;;
11829;SDS011;5972;42.134;24.718;2023-01-04T10:54:38;9.50;;;7.45;;
11829;SDS011;5972;42.134;24.718;2023-01-04T10:57:11;13.50;;;7.35;;
11829;SDS011;5972;42.134;24.718;2023-01-04T10:59:43;10.43;;;7.30;;
11829;SDS011;5972;42.134;24.718;2023-01-04T11:02:15;11.20;;;7.70;;
11829;SDS011;5972;42.134;24.718;2023-01-04T11:04:50;10.85;;;7.30;;
11829;SDS011;5972;42.134;24.718;2023-01-04T11:07:25;9.52;;;7.75;;
11829;SDS011;5972;42.134;24.718;2023-01-04T11:09:58;9.80;;;7.97;;
11829;SDS011;5972;42.134;24.718;2023-01-04T11:12:30;8.38;;;7.07;;
11829;SDS011;5972;42.134;24.718;2023-01-04T11:14:57;8.75;;;6.80;;
11829;SDS011;5972;42.134;24.718;2023-01-04T11:17:24;7.85;;;7.05;;
11829;SDS011;5972;42.134;24.718;2023-01-04T11:19:53;9.63;;;7.47;;
11829;SDS011;5972;42.134;24.718;2023-01-04T11:22:22;10.63;;;7.90;;
11829;SDS011;5972;42.134;24.718;2023-01-04T11:24:52;10.05;;;8.15;;
11829;SDS011;5972;42.134;24.718;2023-01-04T11:27:25;9.55;;;7.45;;
11829;SDS011;5972;42.134;24.718;2023-01-04T11:29:57;9.80;;;7.65;;
11829;SDS011;5972;42.134;24.718;2023-01-04T11:32:31;8.70;;;7.38;;
11829;SDS011;5972;42.134;24.718;2023-01-04T11:35:07;14.40;;;7.20;;
11829;SDS011;5972;42.134;24.718;2023-01-04T11:37:34;11.68;;;6.70;;
11829;SDS011;5972;42.134;24.718;2023-01-04T11:40:17;12.38;;;6.75;;
11829;SDS011;5972;42.134;24.718;2023-01-04T11:42:46;13.35;;;7.55;;
11829;SDS011;5972;42.134;24.718;2023-01-04T11:45:16;9.38;;;7.25;;
11829;SDS011;5972;42.134;24.718;2023-01-04T11:47:48;10.73;;;7.00;;
11829;SDS011;5972;42.134;24.718;2023-01-04T11:53:26;9.25;;;6.68;;
11829;SDS011;5972;42.134;24.718;2023-01-04T11:56:06;8.13;;;6.55;;
11829;SDS011;5972;42.134;24.718;2023-01-04T11:58:36;9.00;;;7.18;;
11829;SDS011;5972;42.134;24.718;2023-01-04T12:01:03;8.57;;;7.18;;
11829;SDS011;5972;42.134;24.718;2023-01-04T12:03:31;8.63;;;6.68;;
11829;SDS011;5972;42.134;24.718;2023-01-04T12:06:06;9.13;;;6.90;;
11829;SDS011;5972;42.134;24.718;2023-01-04T12:08:39;8.05;;;6.50;;
11829;SDS011;5972;42.134;24.718;2023-01-04T12:11:08;13.60;;;7.47;;
11829;SDS011;5972;42.134;24.718;2023-01-04T12:13:45;8.85;;;7.03;;
11829;SDS011;5972;42.134;24.718;2023-01-04T12:16:13;8.43;;;7.32;;
11829;SDS011;5972;42.134;24.718;2023-01-04T12:18:45;10.43;;;6.97;;
11829;SDS011;5972;42.134;24.718;2023-01-04T12:21:15;7.80;;;7.00;;
11829;SDS011;5972;42.134;24.718;2023-01-04T12:23:44;9.10;;;7.30;;
11829;SDS011;5972;42.134;24.718;2023-01-04T12:26:12;12.75;;;7.40;;
11829;SDS011;5972;42.134;24.718;2023-01-04T12:28:41;9.48;;;7.32;;
11829;SDS011;5972;42.134;24.718;2023-01-04T12:33:53;9.77;;;7.25;;
11829;SDS011;5972;42.134;24.718;2023-01-04T12:36:34;15.18;;;6.90;;
11829;SDS011;5972;42.134;24.718;2023-01-04T12:39:29;8.75;;;6.65;;
11829;SDS011;5972;42.134;24.718;2023-01-04T12:42:08;8.05;;;6.57;;
11829;SDS011;5972;42.134;24.718;2023-01-04T12:47:40;8.45;;;6.85;;
11829;SDS011;5972;42.134;24.718;2023-01-04T12:50:25;9.07;;;6.10;;
11829;SDS011;5972;42.134;24.718;2023-01-04T12:52:57;7.20;;;6.50;;
11829;SDS011;5972;42.134;24.718;2023-01-04T12:58:37;12.13;;;7.10;;
11829;SDS011;5972;42.134;24.718;2023-01-04T13:01:07;8.35;;;6.47;;
11829;SDS011;5972;42.134;24.718;2023-01-04T13:03:42;7.38;;;6.50;;
11829;SDS011;5972;42.134;24.718;2023-01-04T13:06:12;7.45;;;6.43;;
11829;SDS011;5972;42.134;24.718;2023-01-04T13:08:41;7.00;;;6.30;;
11829;SDS011;5972;42.134;24.718;2023-01-04T13:11:17;8.48;;;6.20;;
11829;SDS011;5972;42.134;24.718;2023-01-04T13:14:11;11.32;;;6.78;;
11829;SDS011;5972;42.134;24.718;2023-01-04T13:16:48;10.02;;;6.68;;
11829;SDS011;5972;42.134;24.718;2023-01-04T13:19:24;7.07;;;6.38;;
11829;SDS011;5972;42.134;24.718;2023-01-04T13:21:53;7.45;;;6.25;;
11829;SDS011;5972;42.134;24.718;2023-01-04T13:24:23;8.85;;;6.55;;
11829;SDS011;5972;42.134;24.718;2023-01-04T13:26:54;9.15;;;6.80;;
11829;SDS011;5972;42.134;24.718;2023-01-04T13:29:22;7.25;;;6.55;;
11829;SDS011;5972;42.134;24.718;2023-01-04T13:31:52;7.35;;;6.65;;
11829;SDS011;5972;42.134;24.718;2023-01-04T13:34:22;8.45;;;6.75;;
11829;SDS011;5972;42.134;24.718;2023-01-04T13:36:52;8.90;;;7.13;;
11829;SDS011;5972;42.134;24.718;2023-01-04T13:39:36;10.60;;;7.28;;
11829;SDS011;5972;42.134;24.718;2023-01-04T13:42:05;9.95;;;7.40;;
11829;SDS011;5972;42.134;24.718;2023-01-04T13:44:47;11.75;;;8.00;;
11829;SDS011;5972;42.134;24.718;2023-01-04T13:47:26;9.57;;;7.68;;
11829;SDS011;5972;42.134;24.718;2023-01-04T13:49:54;9.68;;;8.05;;
11829;SDS011;5972;42.134;24.718;2023-01-04T13:52:21;9.35;;;7.88;;
11829;SDS011;5972;42.134;24.718;2023-01-04T13:54:50;12.30;;;8.30;;
11829;SDS011;5972;42.134;24.718;2023-01-04T13:57:17;11.13;;;8.63;;
11829;SDS011;5972;42.134;24.718;2023-01-04T13:59:46;13.13;;;8.57;;
11829;SDS011;5972;42.134;24.718;2023-01-04T14:02:15;15.05;;;10.10;;
11829;SDS011;5972;42.134;24.718;2023-01-04T14:04:43;16.02;;;9.77;;
11829;SDS011;5972;42.134;24.718;2023-01-04T14:07:11;9.73;;;7.53;;
11829;SDS011;5972;42.134;24.718;2023-01-04T14:09:46;14.75;;;8.38;;
11829;SDS011;5972;42.134;24.718;2023-01-04T14:12:19;14.88;;;8.60;;
11829;SDS011;5972;42.134;24.718;2023-01-04T14:14:49;14.15;;;7.95;;
11829;SDS011;5972;42.134;24.718;2023-01-04T14:17:25;15.32;;;8.10;;
11829;SDS011;5972;42.134;24.718;2023-01-04T14:20:00;25.55;;;9.30;;
11829;SDS011;5972;42.134;24.718;2023-01-04T14:22:41;16.38;;;9.68;;
11829;SDS011;5972;42.134;24.718;2023-01-04T14:28:26;15.32;;;8.52;;
11829;SDS011;5972;42.134;24.718;2023-01-04T14:31:18;17.25;;;8.88;;
11829;SDS011;5972;42.134;24.718;2023-01-04T14:33:47;14.63;;;8.55;;
11829;SDS011;5972;42.134;24.718;2023-01-04T14:36:18;14.45;;;8.75;;
11829;SDS011;5972;42.134;24.718;2023-01-04T14:38:50;14.35;;;9.35;;
11829;SDS011;5972;42.134;24.718;2023-01-04T14:41:21;19.85;;;9.93;;
11829;SDS011;5972;42.134;24.718;2023-01-04T14:43:52;13.32;;;9.70;;
11829;SDS011;5972;42.134;24.718;2023-01-04T14:46:28;18.13;;;9.98;;
11829;SDS011;5972;42.134;24.718;2023-01-04T14:48:57;14.93;;;9.80;;
11829;SDS011;5972;42.134;24.718;2023-01-04T14:51:25;16.33;;;9.80;;
11829;SDS011;5972;42.134;24.718;2023-01-04T14:53:58;14.18;;;9.88;;
11829;SDS011;5972;42.134;24.718;2023-01-04T14:56:25;17.10;;;10.40;;
11829;SDS011;5972;42.134;24.718;2023-01-04T14:58:53;15.10;;;10.40;;
11829;SDS011;5972;42.134;24.718;2023-01-04T15:01:20;14.70;;;10.38;;
11829;SDS011;5972;42.134;24.718;2023-01-04T15:03:47;19.55;;;10.98;;
11829;SDS011;5972;42.134;24.718;2023-01-04T15:06:14;21.75;;;12.73;;
11829;SDS011;5972;42.134;24.718;2023-01-04T15:08:41;47.90;;;21.70;;
11829;SDS011;5972;42.134;24.718;2023-01-04T15:11:08;37.15;;;18.10;;